createdAt,value
2024-01-05T00:00:46.803Z,3.17
2024-01-05T00:03:14.778Z,7.80
2024-01-05T00:05:42.952Z,4.13
2024-01-05T00:08:10.845Z,5.50
2024-01-05T00:10:38.654Z,3.67
2024-01-05T00:13:08.396Z,2.83
2024-01-05T00:15:36.274Z,4.73
2024-01-05T00:18:07.653Z,2.10
2024-01-05T00:20:35.622Z,9.10
2024-01-05T00:23:04.430Z,4.70
2024-01-05T00:25:32.408Z,6.50
2024-01-05T00:28:00.358Z,7.67
2024-01-05T00:30:28.537Z,7.37
2024-01-05T00:32:56.502Z,4.37
2024-01-05T00:35:25.744Z,3.80
2024-01-05T00:37:53.588Z,2.87
2024-01-05T00:40:22.487Z,4.00
2024-01-05T00:42:50.312Z,2.43
2024-01-05T00:45:18.226Z,3.03
2024-01-05T00:47:46.124Z,3.90
2024-01-05T00:50:14.148Z,2.07
2024-01-05T00:52:43.371Z,3.13
2024-01-05T00:55:11.349Z,2.70
2024-01-05T00:57:45.268Z,2.17
2024-01-05T01:00:14.585Z,2.50
2024-01-05T01:02:43.151Z,4.93
2024-01-05T01:05:11.266Z,2.90
2024-01-05T01:07:42.667Z,3.80
2024-01-05T01:10:11.017Z,3.60
2024-01-05T01:12:39.177Z,4.33
2024-01-05T01:15:08.850Z,4.30
2024-01-05T01:17:37.346Z,5.80
2024-01-05T01:20:06.022Z,3.60
2024-01-05T01:22:33.968Z,4.77
2024-01-05T01:25:03.297Z,5.93
2024-01-05T01:27:31.770Z,5.57
2024-01-05T01:29:59.676Z,4.63
2024-01-05T01:32:29.411Z,4.77
2024-01-05T01:34:57.419Z,4.03
2024-01-05T01:37:25.268Z,3.90
2024-01-05T01:39:53.238Z,8.70
2024-01-05T01:42:22.556Z,4.83
2024-01-05T01:44:50.471Z,4.90
2024-01-05T01:47:18.477Z,4.50
2024-01-05T01:49:46.509Z,3.00
2024-01-05T01:52:14.519Z,5.63
2024-01-05T01:54:42.755Z,2.87
2024-01-05T01:57:10.859Z,2.23
2024-01-05T01:59:40.208Z,4.17
2024-01-05T02:02:08.184Z,2.73
2024-01-05T02:04:37.616Z,3.63
2024-01-05T02:07:06.109Z,3.50
2024-01-05T02:09:34.754Z,3.30
2024-01-05T02:12:02.740Z,2.80
2024-01-05T02:14:30.606Z,6.13
2024-01-05T02:17:00.783Z,2.40
2024-01-05T02:19:28.823Z,2.10
2024-01-05T02:22:00.483Z,2.73
2024-01-05T02:24:30.324Z,2.00
2024-01-05T02:26:58.311Z,2.73
2024-01-05T02:29:26.180Z,2.80
2024-01-05T02:31:54.676Z,2.03
2024-01-05T02:34:22.665Z,2.07
2024-01-05T02:36:50.576Z,2.30
2024-01-05T02:39:18.410Z,1.70
2024-01-05T02:41:47.589Z,4.07
2024-01-05T02:44:15.490Z,3.70
2024-01-05T02:46:43.622Z,3.40
2024-01-05T02:49:11.726Z,5.30
2024-01-05T02:51:41.014Z,6.00
2024-01-05T02:54:09.016Z,3.00
2024-01-05T02:56:37.069Z,5.53
2024-01-05T02:59:07.737Z,7.07
2024-01-05T03:01:35.624Z,3.37
2024-01-05T03:04:03.667Z,4.93
2024-01-05T03:06:31.672Z,4.90
2024-01-05T03:08:59.647Z,4.60
2024-01-05T03:11:27.686Z,5.00
2024-01-05T03:13:55.499Z,4.63
2024-01-05T03:16:24.660Z,6.13
2024-01-05T03:18:52.684Z,6.00
2024-01-05T03:21:20.680Z,7.87
2024-01-05T03:23:48.546Z,3.80
2024-01-05T03:26:16.505Z,3.80
2024-01-05T03:28:44.363Z,4.93
2024-01-05T03:31:15.561Z,4.70
2024-01-05T03:33:46.196Z,4.07
2024-01-05T03:36:14.347Z,2.20
2024-01-05T03:38:42.990Z,4.80
2024-01-05T03:41:10.851Z,3.07
2024-01-05T03:43:38.741Z,3.50
2024-01-05T03:46:06.878Z,3.73
2024-01-05T03:48:34.856Z,3.97
2024-01-05T03:51:04.635Z,3.10
2024-01-05T03:53:32.672Z,3.13
2024-01-05T03:56:00.575Z,1.90
2024-01-05T03:58:29.321Z,2.33
2024-01-05T04:00:57.538Z,3.03
2024-01-05T04:03:25.672Z,3.27
2024-01-05T04:05:53.758Z,2.17
2024-01-05T04:08:22.999Z,5.33
2024-01-05T04:10:50.905Z,2.30
2024-01-05T04:13:18.761Z,2.73
2024-01-05T04:15:46.745Z,2.63
2024-01-05T04:18:14.878Z,3.37
2024-01-05T04:20:42.855Z,3.00
2024-01-05T04:23:10.822Z,5.77
2024-01-05T04:25:40.006Z,2.23
2024-01-05T04:28:07.890Z,3.37
2024-01-05T04:30:37.273Z,3.07
2024-01-05T04:33:05.983Z,4.27
2024-01-05T04:35:34.028Z,2.37
2024-01-05T04:38:01.894Z,1.80
2024-01-05T04:40:29.722Z,4.50
2024-01-05T04:42:58.916Z,3.93
2024-01-05T04:45:26.895Z,5.40
2024-01-05T04:47:54.771Z,3.57
2024-01-05T04:50:22.649Z,2.30
2024-01-05T04:52:50.498Z,4.00
2024-01-05T04:55:18.385Z,4.73
2024-01-05T04:57:46.705Z,3.80
2024-01-05T05:00:17.002Z,5.23
2024-01-05T05:02:44.937Z,4.50
2024-01-05T05:05:12.877Z,3.60
2024-01-05T05:07:40.755Z,5.23
2024-01-05T05:10:09.749Z,4.70
2024-01-05T05:12:37.585Z,3.20
2024-01-05T05:15:06.399Z,4.10
2024-01-05T05:17:35.655Z,3.77
2024-01-05T05:20:04.367Z,3.40
2024-01-05T05:22:32.206Z,2.90
2024-01-05T05:25:00.069Z,3.90
2024-01-05T05:27:27.965Z,2.80
2024-01-05T05:29:55.973Z,3.97
2024-01-05T05:32:23.985Z,2.83
2024-01-05T05:34:53.442Z,3.57
2024-01-05T05:37:21.451Z,3.30
2024-01-05T05:39:49.264Z,3.87
2024-01-05T05:42:17.219Z,3.30
2024-01-05T05:44:45.509Z,3.13
2024-01-05T05:47:13.646Z,2.30
2024-01-05T05:49:41.564Z,3.50
2024-01-05T05:52:10.857Z,3.77
2024-01-05T05:54:38.697Z,5.03
2024-01-05T05:57:09.218Z,3.53
2024-01-05T05:59:37.171Z,3.93
2024-01-05T06:02:05.158Z,4.87
2024-01-05T06:04:33.018Z,3.60
2024-01-05T06:07:01.103Z,3.27
2024-01-05T06:09:30.431Z,4.57
2024-01-05T06:11:58.323Z,4.10
2024-01-05T06:14:26.184Z,5.23
2024-01-05T06:16:54.015Z,4.40
2024-01-05T06:19:22.290Z,2.43
2024-01-05T06:21:50.249Z,2.67
2024-01-05T06:24:18.176Z,4.17
2024-01-05T06:26:47.377Z,5.00
2024-01-05T06:29:15.204Z,2.73
2024-01-05T06:31:43.330Z,3.10
2024-01-05T06:34:11.464Z,2.80
2024-01-05T06:36:39.512Z,4.77
2024-01-05T06:39:07.664Z,5.23
2024-01-05T06:41:35.488Z,5.63
2024-01-05T06:44:05.761Z,4.27
2024-01-05T06:46:33.932Z,3.43
2024-01-05T06:49:02.230Z,4.47
2024-01-05T06:51:31.529Z,2.50
2024-01-05T06:54:00.317Z,3.70
2024-01-05T06:56:33.027Z,2.73
2024-01-05T06:59:01.238Z,4.63
2024-01-05T07:01:30.634Z,5.10
2024-01-05T07:03:58.600Z,3.63
2024-01-05T07:06:26.581Z,6.80
2024-01-05T07:08:54.823Z,3.90
2024-01-05T07:11:23.489Z,2.90
2024-01-05T07:13:52.242Z,4.10
2024-01-05T07:16:19.776Z,3.47
2024-01-05T07:18:49.598Z,2.80
2024-01-05T07:21:18.362Z,2.37
2024-01-05T07:23:47.005Z,3.23
2024-01-05T07:26:15.123Z,3.57
2024-01-05T07:28:42.963Z,2.70
2024-01-05T07:31:11.543Z,3.37
2024-01-05T07:33:41.703Z,2.73
2024-01-05T07:36:10.977Z,3.00
2024-01-05T07:38:38.869Z,6.50
2024-01-05T07:41:06.723Z,3.27
2024-01-05T07:43:34.940Z,5.80
2024-01-05T07:46:03.857Z,2.93
2024-01-05T07:48:31.842Z,7.33
2024-01-05T07:50:59.796Z,2.67
2024-01-05T07:53:29.074Z,3.00
2024-01-05T07:55:56.888Z,3.30
2024-01-05T07:58:24.985Z,3.33
2024-01-05T08:00:52.916Z,2.13
2024-01-05T08:03:20.937Z,4.10
2024-01-05T08:05:49.085Z,5.27
2024-01-05T08:08:16.996Z,5.43
2024-01-05T08:10:46.305Z,3.93
2024-01-05T08:13:14.133Z,6.67
2024-01-05T08:15:42.092Z,4.50
2024-01-05T08:18:10.742Z,5.13
2024-01-05T08:20:38.791Z,7.60
2024-01-05T08:23:06.830Z,2.53
2024-01-05T08:25:34.874Z,4.23
2024-01-05T08:28:04.207Z,2.10
2024-01-05T08:30:33.016Z,4.60
2024-01-05T08:33:01.091Z,3.77
2024-01-05T08:35:30.921Z,2.53
2024-01-05T08:37:58.788Z,3.10
2024-01-05T08:40:28.469Z,3.17
2024-01-05T08:42:56.552Z,6.50
2024-01-05T08:45:25.832Z,6.23
2024-01-05T08:47:54.152Z,6.40
2024-01-05T08:50:22.120Z,3.13
2024-01-05T08:52:50.244Z,4.20
2024-01-05T08:55:18.930Z,6.67
2024-01-05T08:57:48.247Z,4.83
2024-01-05T09:00:16.574Z,4.00
2024-01-05T09:02:45.915Z,5.73
2024-01-05T09:05:13.953Z,5.07
2024-01-05T09:07:41.888Z,3.50
2024-01-05T09:10:10.348Z,2.97
2024-01-05T09:12:39.751Z,3.60
2024-01-05T09:15:09.951Z,3.43
2024-01-05T09:17:37.977Z,4.47
2024-01-05T09:20:09.257Z,6.90
2024-01-05T09:22:38.655Z,3.40
2024-01-05T09:25:07.948Z,6.23
2024-01-05T09:27:36.051Z,3.80
2024-01-05T09:30:04.570Z,4.13
2024-01-05T09:32:32.900Z,4.40
2024-01-05T09:35:00.835Z,4.67
2024-01-05T09:37:30.038Z,2.70
2024-01-05T09:39:57.859Z,6.90
2024-01-05T09:42:27.627Z,4.30
2024-01-05T09:44:56.062Z,4.47
2024-01-05T09:47:24.213Z,3.10
2024-01-05T09:49:52.375Z,2.30
2024-01-05T09:52:22.228Z,4.00
2024-01-05T09:54:51.978Z,8.13
2024-01-05T09:57:20.092Z,5.87
2024-01-05T09:59:49.218Z,4.60
2024-01-05T10:02:23.501Z,3.07
2024-01-05T10:04:51.491Z,5.17
2024-01-05T10:07:19.575Z,4.27
2024-01-05T10:09:54.602Z,2.90
2024-01-05T10:12:22.686Z,3.20
2024-01-05T10:14:50.717Z,3.80
2024-01-05T10:17:18.947Z,5.83
2024-01-05T10:19:47.471Z,6.00
2024-01-05T10:22:16.760Z,5.53
2024-01-05T10:24:44.911Z,2.70
2024-01-05T10:27:15.520Z,5.30
2024-01-05T10:29:45.493Z,2.93
2024-01-05T10:32:18.803Z,2.90
2024-01-05T10:34:48.311Z,4.30
2024-01-05T10:37:17.071Z,3.80
2024-01-05T10:39:48.437Z,3.30
2024-01-05T10:42:22.437Z,3.73
2024-01-05T10:44:52.459Z,2.93
2024-01-05T10:47:22.874Z,2.30
2024-01-05T10:49:53.104Z,2.63
2024-01-05T10:52:22.924Z,2.63
2024-01-05T10:54:53.401Z,4.40
2024-01-05T10:57:24.574Z,5.70
2024-01-05T10:59:55.274Z,2.10
2024-01-05T11:02:26.822Z,2.20
2024-01-05T11:05:02.450Z,5.57
2024-01-05T11:07:34.899Z,2.90
2024-01-05T11:10:14.887Z,3.70
2024-01-05T11:13:00.585Z,4.00
2024-01-05T11:15:40.926Z,3.43
2024-01-05T11:18:40.808Z,3.57
2024-01-05T11:21:13.007Z,5.53
2024-01-05T11:23:43.394Z,2.77
2024-01-05T11:26:32.763Z,3.80
2024-01-05T11:29:02.176Z,2.50
2024-01-05T11:31:52.059Z,3.77
2024-01-05T11:34:32.984Z,4.23
2024-01-05T11:37:01.448Z,2.10
2024-01-05T11:39:47.018Z,5.37
2024-01-05T11:42:29.650Z,2.33
2024-01-05T11:45:01.662Z,3.10
2024-01-05T11:47:46.112Z,4.00
2024-01-05T11:50:32.042Z,2.70
2024-01-05T11:53:14.560Z,4.30
2024-01-05T11:55:48.991Z,3.07
2024-01-05T11:58:22.019Z,2.83
2024-01-05T12:00:53.058Z,3.63
2024-01-05T12:03:23.240Z,3.10
2024-01-05T12:05:52.217Z,4.23
2024-01-05T12:08:20.544Z,2.07
2024-01-05T12:10:54.009Z,2.50
2024-01-05T12:13:23.538Z,5.70
2024-01-05T12:16:01.000Z,3.37
2024-01-05T12:18:37.515Z,4.30
2024-01-05T12:21:08.838Z,3.60
2024-01-05T12:23:38.647Z,3.73
2024-01-05T12:26:08.121Z,2.10
2024-01-05T12:28:37.749Z,4.53
2024-01-05T12:31:08.896Z,3.33
2024-01-05T12:33:39.023Z,4.97
2024-01-05T12:36:11.189Z,3.43
2024-01-05T12:38:40.021Z,5.60
2024-01-05T12:41:09.616Z,2.97
2024-01-05T12:43:38.026Z,2.13
2024-01-05T12:46:07.455Z,4.03
2024-01-05T12:48:35.622Z,5.50
2024-01-05T12:51:08.080Z,2.97
2024-01-05T12:53:36.399Z,3.10
2024-01-05T12:56:09.192Z,4.07
2024-01-05T12:58:41.132Z,7.10
2024-01-05T13:01:18.210Z,3.20
2024-01-05T13:03:52.853Z,4.70
2024-01-05T13:06:22.333Z,3.07
2024-01-05T13:08:50.562Z,3.97
2024-01-05T13:11:21.508Z,4.50
2024-01-05T13:13:50.908Z,5.93
2024-01-05T13:16:20.589Z,2.83
2024-01-05T13:18:49.533Z,2.63
2024-01-05T13:21:17.774Z,4.60
2024-01-05T13:23:45.884Z,3.30
2024-01-05T13:26:13.827Z,3.20
2024-01-05T13:28:42.471Z,4.17
2024-01-05T13:31:10.949Z,2.97
2024-01-05T13:33:41.771Z,2.90
2024-01-05T13:36:10.212Z,2.93
2024-01-05T13:38:38.150Z,2.57
2024-01-05T13:41:07.192Z,2.87
2024-01-05T13:43:35.876Z,5.27
2024-01-05T13:46:04.768Z,3.77
2024-01-05T13:48:32.808Z,4.17
2024-01-05T13:51:02.155Z,2.83
2024-01-05T13:53:30.033Z,4.30
2024-01-05T13:55:58.506Z,4.93
2024-01-05T13:58:26.517Z,4.73
2024-01-05T14:00:54.860Z,5.03
2024-01-05T14:03:25.127Z,2.47
2024-01-05T14:05:53.111Z,6.03
2024-01-05T14:08:24.266Z,3.90
2024-01-05T14:10:52.351Z,3.83
2024-01-05T14:13:20.183Z,2.77
2024-01-05T14:15:48.141Z,4.73
2024-01-05T14:18:16.180Z,6.70
2024-01-05T14:20:44.221Z,3.67
2024-01-05T14:23:12.309Z,6.27
2024-01-05T14:25:41.484Z,3.90
2024-01-05T14:28:09.332Z,6.97
2024-01-05T14:30:37.222Z,5.57
2024-01-05T14:33:05.773Z,5.20
2024-01-05T14:35:33.692Z,5.07
2024-01-05T14:38:00.575Z,5.53
2024-01-05T14:40:28.409Z,4.30
2024-01-05T14:42:57.650Z,4.53
2024-01-05T14:45:26.011Z,10.53
2024-01-05T14:47:53.900Z,11.30
2024-01-05T14:50:21.843Z,7.13
2024-01-05T14:52:55.958Z,3.70
2024-01-05T14:55:31.769Z,4.93
2024-01-05T14:58:02.160Z,2.33
2024-01-05T15:00:30.087Z,3.80
2024-01-05T15:03:00.606Z,2.27
2024-01-05T15:05:28.799Z,3.73
2024-01-05T15:07:56.726Z,6.30
2024-01-05T15:10:24.621Z,4.20
2024-01-05T15:12:53.599Z,3.77
2024-01-05T15:15:22.887Z,3.40
2024-01-05T15:17:51.183Z,5.23
2024-01-05T15:20:19.222Z,3.50
2024-01-05T15:22:47.174Z,5.57
2024-01-05T15:25:16.183Z,2.53
2024-01-05T15:27:44.327Z,3.37
2024-01-05T15:30:13.281Z,3.87
2024-01-05T15:32:42.575Z,5.60
2024-01-05T15:35:10.805Z,5.13
2024-01-05T15:37:38.752Z,3.07
2024-01-05T15:40:08.128Z,5.73
2024-01-05T15:42:36.091Z,10.63
2024-01-05T15:45:04.081Z,7.73
2024-01-05T15:47:31.999Z,4.43
2024-01-05T15:50:01.532Z,4.80
2024-01-05T15:52:29.439Z,4.33
2024-01-05T15:54:57.322Z,4.30
2024-01-05T15:57:25.316Z,3.60
2024-01-05T15:59:53.124Z,3.50
2024-01-05T16:02:20.955Z,6.23
2024-01-05T16:04:48.762Z,12.03
2024-01-05T16:07:18.430Z,8.93
2024-01-05T16:09:46.297Z,11.00
2024-01-05T16:12:14.224Z,9.00
2024-01-05T16:14:48.004Z,9.83
2024-01-05T16:17:16.105Z,10.53
2024-01-05T16:19:44.012Z,7.27
2024-01-05T16:22:11.863Z,6.23
2024-01-05T16:24:41.682Z,9.00
2024-01-05T16:27:09.555Z,10.43
2024-01-05T16:29:37.410Z,10.43
2024-01-05T16:32:05.701Z,8.70
2024-01-05T16:34:33.617Z,7.60
2024-01-05T16:37:01.466Z,8.77
2024-01-05T16:39:29.353Z,6.90
2024-01-05T16:41:59.179Z,6.00
2024-01-05T16:44:26.970Z,9.90
2024-01-05T16:46:54.780Z,10.37
2024-01-05T16:49:22.746Z,7.30
2024-01-05T16:51:50.732Z,6.73
2024-01-05T16:54:20.239Z,5.20
2024-01-05T16:56:51.555Z,4.30
2024-01-05T16:59:24.254Z,6.03
2024-01-05T17:01:52.135Z,7.07
2024-01-05T17:04:22.332Z,9.63
2024-01-05T17:06:53.307Z,6.40
2024-01-05T17:09:21.879Z,9.93
2024-01-05T17:11:49.770Z,7.60
2024-01-05T17:14:17.865Z,13.03
2024-01-05T17:16:49.139Z,9.23
2024-01-05T17:19:17.433Z,6.73
2024-01-05T17:21:45.423Z,11.77
2024-01-05T17:24:13.384Z,6.53
2024-01-05T17:26:41.706Z,9.90
2024-01-05T17:29:09.563Z,7.53
2024-01-05T17:31:37.644Z,7.50
2024-01-05T17:34:07.378Z,7.97
2024-01-05T17:36:40.574Z,8.10
2024-01-05T17:39:08.609Z,11.83
2024-01-05T17:41:36.848Z,8.07
2024-01-05T17:44:04.927Z,7.03
2024-01-05T17:46:32.896Z,8.27
2024-01-05T17:49:00.796Z,8.37
2024-01-05T17:51:36.003Z,9.53
2024-01-05T17:54:03.922Z,7.17
2024-01-05T17:56:34.211Z,7.60
2024-01-05T17:59:04.408Z,8.87
2024-01-05T18:01:32.715Z,9.90
2024-01-05T18:04:01.188Z,11.60
2024-01-05T18:06:30.614Z,7.03
2024-01-05T18:08:59.543Z,6.93
2024-01-05T18:11:28.390Z,7.27
2024-01-05T18:13:56.890Z,7.70
2024-01-05T18:16:26.107Z,9.30
2024-01-05T18:18:54.410Z,9.10
2024-01-05T18:21:25.580Z,10.80
2024-01-05T18:23:55.660Z,11.10
2024-01-05T18:26:24.555Z,10.07
2024-01-05T18:28:52.765Z,8.93
2024-01-05T18:31:26.097Z,7.33
2024-01-05T18:33:54.256Z,10.53
2024-01-05T18:36:22.546Z,15.20
2024-01-05T18:38:51.012Z,15.20
2024-01-05T18:41:25.911Z,10.13
2024-01-05T18:43:53.943Z,7.53
2024-01-05T18:46:21.970Z,15.90
2024-01-05T18:48:50.184Z,13.73
2024-01-05T18:51:18.664Z,12.60
2024-01-05T18:53:47.274Z,13.83
2024-01-05T18:56:15.146Z,15.37
2024-01-05T18:58:44.387Z,11.87
2024-01-05T19:01:12.689Z,12.13
2024-01-05T19:03:40.666Z,17.80
2024-01-05T19:06:09.039Z,19.50
2024-01-05T19:08:38.421Z,22.90
2024-01-05T19:11:06.482Z,20.17
2024-01-05T19:13:34.475Z,19.37
2024-01-05T19:16:04.038Z,19.23
2024-01-05T19:18:32.060Z,18.07
2024-01-05T19:20:59.954Z,19.80
2024-01-05T19:23:28.015Z,19.00
2024-01-05T19:25:55.895Z,24.73
2024-01-05T19:28:24.237Z,20.20
2024-01-05T19:30:52.197Z,18.40
2024-01-05T19:33:21.610Z,21.20
2024-01-05T19:35:49.616Z,18.30
2024-01-05T19:38:17.520Z,19.80
2024-01-05T19:40:45.501Z,12.53
2024-01-05T19:43:13.567Z,16.33
2024-01-05T19:45:42.416Z,16.90
2024-01-05T19:48:10.780Z,17.27
2024-01-05T19:50:40.055Z,20.00
2024-01-05T19:53:07.881Z,18.60
2024-01-05T19:55:35.752Z,15.23
2024-01-05T19:58:03.620Z,17.43
2024-01-05T20:00:31.612Z,14.63
2024-01-05T20:02:59.667Z,15.27
2024-01-05T20:05:27.621Z,14.17
2024-01-05T20:07:59.657Z,12.63
2024-01-05T20:10:28.605Z,12.77
2024-01-05T20:12:57.104Z,12.90
2024-01-05T20:15:26.506Z,11.67
2024-01-05T20:17:55.262Z,11.67
2024-01-05T20:20:23.496Z,15.23
2024-01-05T20:22:51.396Z,15.10
2024-01-05T20:25:20.851Z,14.83
2024-01-05T20:27:49.679Z,9.53
2024-01-05T20:30:18.449Z,12.77
2024-01-05T20:32:46.415Z,15.77
2024-01-05T20:35:14.326Z,10.00
2024-01-05T20:37:42.163Z,10.90
2024-01-05T20:40:11.109Z,14.87
2024-01-05T20:42:40.410Z,14.40
2024-01-05T20:45:12.638Z,15.57
2024-01-05T20:47:41.005Z,10.00
2024-01-05T20:50:09.746Z,9.80
2024-01-05T20:52:38.690Z,14.17
2024-01-05T20:55:07.621Z,13.07
2024-01-05T20:57:35.698Z,9.40
2024-01-05T21:00:05.859Z,9.67
2024-01-05T21:02:33.757Z,9.47
2024-01-05T21:05:01.610Z,9.10
2024-01-05T21:07:29.555Z,14.53
2024-01-05T21:09:57.496Z,11.30
2024-01-05T21:12:25.447Z,10.80
2024-01-05T21:14:53.347Z,8.80
2024-01-05T21:17:23.135Z,13.87
2024-01-05T21:19:51.263Z,10.20
2024-01-05T21:22:19.746Z,13.90
2024-01-05T21:24:51.498Z,8.10
2024-01-05T21:27:19.994Z,13.03
2024-01-05T21:29:47.918Z,11.47
2024-01-05T21:32:20.506Z,14.47
2024-01-05T21:34:49.939Z,17.77
2024-01-05T21:37:17.974Z,10.73
2024-01-05T21:39:45.943Z,16.77
2024-01-05T21:42:14.049Z,11.17
2024-01-05T21:44:42.156Z,12.70
2024-01-05T21:47:09.999Z,10.67
2024-01-05T21:49:39.813Z,14.07
2024-01-05T21:52:09.595Z,10.57
2024-01-05T21:54:38.008Z,9.57
2024-01-05T21:57:06.565Z,10.20
2024-01-05T21:59:34.827Z,10.67
2024-01-05T22:02:03.116Z,15.17
2024-01-05T22:04:31.213Z,12.70
2024-01-05T22:07:01.974Z,11.50
2024-01-05T22:09:31.500Z,11.37
2024-01-05T22:11:59.369Z,8.63
2024-01-05T22:14:27.709Z,10.87
2024-01-05T22:16:55.842Z,15.10
2024-01-05T22:19:24.024Z,11.37
2024-01-05T22:21:52.170Z,9.50
2024-01-05T22:24:20.113Z,10.50
2024-01-05T22:26:49.773Z,6.17
2024-01-05T22:29:17.742Z,7.53
2024-01-05T22:31:47.251Z,6.07
2024-01-05T22:34:15.457Z,4.43
2024-01-05T22:36:44.438Z,4.63
2024-01-05T22:39:13.506Z,5.73
2024-01-05T22:41:41.670Z,6.20
2024-01-05T22:44:10.866Z,8.30
2024-01-05T22:46:39.147Z,4.23
2024-01-05T22:49:07.196Z,5.10
2024-01-05T22:51:35.152Z,6.30
2024-01-05T22:54:04.770Z,9.17
2024-01-05T22:56:32.820Z,7.37
2024-01-05T22:59:00.837Z,5.70
2024-01-05T23:01:30.090Z,5.20
2024-01-05T23:03:58.131Z,7.50
2024-01-05T23:06:26.270Z,7.53
2024-01-05T23:08:54.238Z,7.37
2024-01-05T23:11:22.091Z,4.50
2024-01-05T23:13:49.998Z,6.30
2024-01-05T23:16:17.877Z,6.20
2024-01-05T23:18:47.257Z,4.83
2024-01-05T23:21:15.292Z,6.90
2024-01-05T23:23:43.229Z,5.63
2024-01-05T23:26:15.973Z,5.80
2024-01-05T23:28:44.026Z,4.73
2024-01-05T23:31:12.157Z,4.80
2024-01-05T23:33:40.461Z,6.47
2024-01-05T23:36:10.332Z,9.90
2024-01-05T23:38:38.227Z,6.70
2024-01-05T23:41:06.335Z,9.97
2024-01-05T23:43:34.385Z,5.87
2024-01-05T23:46:02.260Z,7.17
2024-01-05T23:48:30.137Z,4.70
2024-01-05T23:50:58.073Z,4.20
2024-01-05T23:53:27.283Z,7.37
2024-01-05T23:55:55.098Z,4.50
2024-01-05T23:58:22.936Z,6.40
